• Join FlightAware (Why Join?)
  • Login
  • US Flag 
09:31PM EDT


 

Airport Tracker/Info


-or-


 

Live Flight TrackerFlight Track Log ✈ FLG3862 ✈ 22-Apr-2013 ✈ KBTV - KDTW

Flight Track Log - Related Links

Times and Time Zones

All times are in EDT time to prevent confusion due to time zone crossing. See the FLG3862 flight status page for this flight to view local times or setup timezone preferences in your user account.

Time Position Orientation Groundspeed Altitude Reporting Facility
EDT Latitude Longitude Course Direction KTS MPH feet Rate Location/Type
12:44PM 44.4007 -73.5416 253° West  Level FlightAware Approximate
12:44PM 44.3833 -73.2622 256° West 277 319 7,600  Level Boston Center
12:45PM 44.3731 -73.6703 253° West  Level FlightAware Approximate
12:45PM 44.3681 -73.3694 259° West 277 319 9,900  Level Boston Center
12:46PM 44.3522 -73.8014 259° West  Level FlightAware Approximate
12:46PM 44.3503 -73.4881 258° West 300 345 10,800  Level Boston Center
12:47PM 44.3334 -73.9331 259° West  Level FlightAware Approximate
12:47PM 44.3281 -73.6414 259° West 355 409 12,600  Level Boston Center
12:48PM 44.3095 -74.0631 256° West  Level FlightAware Approximate
12:48PM 44.3078 -73.7803 259° West 365 420 14,500  Level Boston Center
12:49PM 44.2872 -73.9219 259° West 372 428 16,500 1,620 Climbing Boston Center
12:50PM 44.2686 -74.0578 259° West 372 428 17,800 1,620 Climbing Boston Center
12:51PM 44.2481 -74.1933 258° West 366 421 19,800 1,500 Climbing Boston Center
12:52PM 44.2269 -74.3289 258° West 366 421 21,200 1,140 Climbing Boston Center
12:53PM 44.2033 -74.4992 259° West 371 427 22,400 1,080 Climbing Boston Center
12:54PM 44.1797 -74.6403 257° West 371 427 23,400 960 Climbing Boston Center
12:55PM 44.1581 -74.7900 259° West 382 440 24,400 960 Climbing Boston Center
12:56PM 44.1342 -74.9336 257° West 387 445 25,400 960 Climbing Boston Center
12:57PM 44.1122 -75.0803 258° West 392 451 26,400 900 Climbing Boston Center
12:58PM 44.0922 -75.2239 259° West 392 451 27,300 780 Climbing Boston Center
12:59PM 44.0675 -75.3731 257° West 392 451 28,000 300 Climbing Boston Center
01:00PM 44.0431 -75.5192 257° West 392 451 28,000  Level Boston Center
01:01PM 44.0200 -75.6739 258° West 397 457 28,000  Level Boston Center
01:02PM 43.9944 -75.8369 258° West 416 479 28,000  Level Boston Center
01:03PM 43.9689 -75.9944 257° West 421 484 28,000  Level Boston Center
01:04PM 43.9533 -76.1550 262° West 426 490 28,000  Level Boston Center
01:05PM 43.9500 -76.3192 268° West 426 490 28,000  Level Boston Center
01:06PM 43.9464 -76.4833 268° West 420 483 28,000  Level Boston Center
01:07PM 43.9425 -76.6447 268° West 420 483 28,000  Level Boston Center
01:07PM 43.9333 -76.7000 257° West 420 483 28,000  Level Toronto Center
01:08PM 43.9167 -76.8833 263° West 420 483 28,000  Level Toronto Center
01:09PM 43.9167 -77.0167 270° West 420 483 28,000  Level Toronto Center
01:10PM 43.9000 -77.1833 262° West 420 483 28,000  Level Toronto Center
01:11PM 43.9000 -77.3667 270° West 420 483 28,000  Level Toronto Center
01:12PM 43.9000 -77.5000 270° West 420 483 28,000  Level Toronto Center
01:13PM 43.9000 -77.6667 270° West 420 483 28,000  Level Toronto Center
01:14PM 43.8833 -77.8333 262° West 420 483 28,000  Level Toronto Center
01:15PM 43.8833 -77.9833 270° West 420 483 28,000  Level Toronto Center
01:16PM 43.8667 -78.1500 262° West 420 483 28,000  Level Toronto Center
01:17PM 43.8667 -78.3167 270° West 420 483 28,000  Level Toronto Center
01:18PM 43.8500 -78.4833 262° West 420 483 28,000  Level Toronto Center
01:19PM 43.8667 -78.6333 279° West 420 483 28,000  Level Toronto Center
01:20PM 43.8500 -78.8000 262° West 420 483 28,000  Level Toronto Center
01:21PM 43.7833 -78.9333 235° Southwest 420 483 28,000  Level Toronto Center
01:22PM 43.7167 -79.0500 232° Southwest 420 483 28,000  Level Toronto Center
01:23PM 43.6500 -79.2000 238° Southwest 420 483 28,000  Level Toronto Center
01:24PM 43.5833 -79.3167 232° Southwest 420 483 28,000  Level Toronto Center
01:25PM 43.5000 -79.4500 229° Southwest 420 483 28,000  Level Toronto Center
01:26PM 43.4333 -79.5833 235° Southwest 420 483 28,000  Level Toronto Center
01:27PM 43.3667 -79.7000 232° Southwest 420 483 28,000 -780 Level Toronto Center
01:28PM 43.3000 -79.8167 232° Southwest 430 495 26,500 -1,500 Descending Toronto Center
01:29PM 43.2167 -79.9500 229° Southwest 430 495 25,000 -1,260 Descending Toronto Center
01:30PM 43.1500 -80.0833 236° Southwest 430 495 24,000 -900 Descending Toronto Center
01:31PM 43.0667 -80.2333 233° Southwest 420 483 23,300 -540 Descending Toronto Center
01:32PM 43.0000 -80.3333 228° Southwest 430 495 23,000 -180 Descending Toronto Center
01:33PM 42.9333 -80.4833 239° Southwest 430 495 23,000  Level Toronto Center
01:34PM 42.8500 -80.6167 230° Southwest 430 495 23,000  Level Toronto Center
01:35PM 42.8081 -80.7106 239° Southwest 434 499 23,000  Level Cleveland Center
01:36PM 42.7414 -80.8461 236° Southwest 440 506 23,000  Level Cleveland Center
01:37PM 42.7178 -81.0072 259° West 426 490 23,000  Level Cleveland Center
01:38PM 42.6964 -81.1650 260° West 438 504 23,000  Level Cleveland Center
01:39PM 42.6744 -81.3258 260° West 438 504 23,000  Level Cleveland Center
01:40PM 42.6547 -81.4894 261° West 443 510 23,000 -180 Level Cleveland Center
01:41PM 42.6325 -81.6500 259° West 443 510 22,700 -1,200 Descending Cleveland Center
01:42PM 42.6078 -81.8272 259° West 443 510 20,700 -1,980 Descending Cleveland Center
01:43PM 42.5872 -81.9819 260° West 433 498 18,800 -1,740 Descending Cleveland Center
01:44PM 42.5667 -82.1281 259° West 419 482 17,300 -1,740 Descending Cleveland Center
01:45PM 42.5478 -82.2686 260° West 401 461 15,400 -2,040 Descending Cleveland Center
01:46PM 42.5361 -82.3528 259° West 385 443 14,200 -1,920 Descending Cleveland Center
01:46PM 42.5269 -82.4117 258° West 391 450 13,500 -1,500 Descending Cleveland Center
01:47PM 42.5058 -82.5461 258° West 386 444 12,000 -1,200 Descending Cleveland Center
01:47PM 42.4972 -82.5769 249° West 308 354 12,000 -600 Level Cleveland Center
01:48PM 42.4731 -82.6439 244° Southwest 339 390 11,400 -1,200 Descending Cleveland Center
01:49PM 42.4400 -82.7411 245° Southwest 301 346 9,900 -1,320 Descending Cleveland Center
01:51PM 42.4289 -82.9158 265° West 287 330 8,000 -1,260 Descending FAA TRACON SMA TRACON (SMA)
01:51PM 42.4264 -82.9561 265° West 282 325 7,500 -1,500 Descending FAA TRACON SMA TRACON (SMA)
01:51PM 42.4247 -82.9853 266° West 277 319 7,100 -420 Descending Cleveland Center
01:52PM 42.4167 -83.0722 263° West 207 238 7,000 -420 Descending Cleveland Center
01:53PM 42.4133 -83.1256 265° West 238 274 6,400 -900 Descending Cleveland Center
01:53PM 42.4125 -83.1425 266° West 188 216 6,100 -960 Descending FAA TRACON SMA TRACON (SMA)
01:54PM 42.4042 -83.1656 244° Southwest 182 209 5,800 -1,080 Descending FAA TRACON SMA TRACON (SMA)
01:54PM 42.3975 -83.1836 243° Southwest 184 212 5,400 -1,380 Descending FAA TRACON SMA TRACON (SMA)
01:54PM 42.3881 -83.2031 237° Southwest 185 213 4,900 -1,680 Descending FAA TRACON SMA TRACON (SMA)
01:55PM 42.3739 -83.2203 222° Southwest 180 207 4,300 -1,800 Descending FAA TRACON SMA TRACON (SMA)